createdAt,value
2018-11-06T00:02:06.879Z,10.00
2018-11-06T00:04:39.934Z,9.90
2018-11-06T00:07:07.450Z,10.00
2018-11-06T00:09:34.907Z,9.90
2018-11-06T00:12:02.473Z,10.00
2018-11-06T00:14:30.109Z,9.90
2018-11-06T00:16:57.653Z,9.90
2018-11-06T00:19:25.130Z,9.90
2018-11-06T00:21:52.619Z,9.90
2018-11-06T00:24:20.129Z,9.90
2018-11-06T00:26:47.691Z,9.90
2018-11-06T00:29:15.167Z,9.90
2018-11-06T00:31:44.359Z,9.90
2018-11-06T00:34:14.944Z,9.80
2018-11-06T00:36:57.261Z,9.80
2018-11-06T00:39:36.849Z,9.80
2018-11-06T00:42:04.514Z,9.60
2018-11-06T00:44:32.074Z,9.50
2018-11-06T00:46:59.511Z,9.60
2018-11-06T00:49:26.975Z,9.60
2018-11-06T00:51:54.467Z,9.60
2018-11-06T00:54:21.902Z,9.60
2018-11-06T00:56:49.394Z,9.60
2018-11-06T00:59:16.824Z,9.60
2018-11-06T01:01:44.260Z,9.80
2018-11-06T01:04:13.378Z,9.70
2018-11-06T01:06:40.863Z,9.70
2018-11-06T01:09:11.759Z,9.80
2018-11-06T01:11:39.872Z,9.70
2018-11-06T01:14:07.787Z,9.40
2018-11-06T01:16:35.374Z,9.60
2018-11-06T01:19:02.874Z,9.50
2018-11-06T01:21:30.860Z,9.50
2018-11-06T01:23:58.358Z,9.40
2018-11-06T01:26:25.916Z,9.30
2018-11-06T01:28:53.400Z,9.30
2018-11-06T01:31:20.859Z,9.20
2018-11-06T01:33:48.455Z,9.20
2018-11-06T01:36:15.855Z,9.20
2018-11-06T01:38:43.328Z,9.20
2018-11-06T01:41:10.897Z,9.30
2018-11-06T01:43:38.348Z,9.30
2018-11-06T01:46:05.799Z,9.20
2018-11-06T01:48:33.328Z,9.30
2018-11-06T01:51:01.598Z,9.30
2018-11-06T01:53:29.055Z,9.20
2018-11-06T01:55:56.574Z,9.20
2018-11-06T01:58:24.027Z,9.10
2018-11-06T02:00:51.609Z,9.10
2018-11-06T02:03:19.087Z,9.00
2018-11-06T02:05:46.538Z,8.90
2018-11-06T02:08:14.238Z,8.80
2018-11-06T02:10:41.690Z,8.80
2018-11-06T02:13:09.102Z,8.70
2018-11-06T02:15:36.500Z,8.70
2018-11-06T02:18:04.426Z,8.70
2018-11-06T02:20:31.982Z,8.70
2018-11-06T02:22:59.386Z,8.70
2018-11-06T02:25:27.017Z,8.70
2018-11-06T02:27:54.494Z,8.70
2018-11-06T02:30:21.874Z,8.70
2018-11-06T02:32:49.300Z,8.60
2018-11-06T02:35:16.939Z,8.40
2018-11-06T02:37:44.339Z,8.50
2018-11-06T02:40:13.815Z,8.50
2018-11-06T02:42:41.642Z,8.70
2018-11-06T02:45:09.997Z,8.70
2018-11-06T02:47:37.469Z,8.70
2018-11-06T02:50:05.577Z,8.70
2018-11-06T02:52:33.024Z,8.70
2018-11-06T02:55:00.546Z,8.70
2018-11-06T02:57:27.980Z,8.80
2018-11-06T02:59:55.451Z,8.80
2018-11-06T03:02:22.931Z,8.80
2018-11-06T03:04:50.515Z,8.80
2018-11-06T03:07:18.205Z,8.80
2018-11-06T03:09:45.681Z,8.80
2018-11-06T03:12:13.126Z,8.80
2018-11-06T03:14:40.621Z,8.80
2018-11-06T03:17:08.448Z,8.70
2018-11-06T03:19:36.090Z,8.70
2018-11-06T03:22:03.522Z,8.70
2018-11-06T03:24:31.113Z,8.70
2018-11-06T03:26:58.601Z,8.60
2018-11-06T03:29:26.002Z,8.70
2018-11-06T03:31:53.476Z,8.70
2018-11-06T03:34:21.162Z,8.70
2018-11-06T03:36:48.571Z,8.80
2018-11-06T03:39:16.007Z,8.80
2018-11-06T03:41:43.543Z,8.80
2018-11-06T03:44:10.945Z,8.80
2018-11-06T03:46:38.414Z,8.80
2018-11-06T03:49:05.870Z,8.90
2018-11-06T03:51:33.517Z,8.80
2018-11-06T03:54:01.095Z,8.80
2018-11-06T03:56:28.538Z,8.80
2018-11-06T03:58:55.997Z,8.70
2018-11-06T04:01:23.665Z,8.70
2018-11-06T04:03:51.118Z,8.70
2018-11-06T04:06:18.627Z,8.70
2018-11-06T04:08:46.037Z,8.70
2018-11-06T04:11:13.435Z,8.70
2018-11-06T04:13:41.493Z,8.60
2018-11-06T04:16:08.971Z,8.70
2018-11-06T04:18:36.422Z,8.70
2018-11-06T04:21:04.001Z,8.70
2018-11-06T04:23:31.487Z,8.80
2018-11-06T04:25:58.892Z,8.90
2018-11-06T04:28:26.790Z,8.90
2018-11-06T04:30:54.173Z,8.90
2018-11-06T04:33:21.665Z,8.80
2018-11-06T04:35:49.078Z,8.90
2018-11-06T04:38:16.514Z,8.90
2018-11-06T04:40:44.004Z,9.00
2018-11-06T04:43:11.533Z,8.90
2018-11-06T04:45:39.003Z,8.90
2018-11-06T04:48:06.458Z,8.90
2018-11-06T04:50:34.069Z,8.90
2018-11-06T04:53:01.536Z,8.80
2018-11-06T04:55:29.019Z,8.90
2018-11-06T04:57:56.458Z,8.90
2018-11-06T05:00:24.047Z,8.90
2018-11-06T05:02:51.523Z,8.80
2018-11-06T05:05:18.982Z,8.80
2018-11-06T05:07:46.404Z,8.90
2018-11-06T05:10:14.419Z,8.90
2018-11-06T05:12:41.938Z,8.80
2018-11-06T05:15:11.218Z,8.90
2018-11-06T05:17:38.699Z,8.90
2018-11-06T05:20:20.114Z,8.90
2018-11-06T05:22:47.606Z,8.90
2018-11-06T05:25:15.361Z,8.80
2018-11-06T05:27:42.830Z,8.80
2018-11-06T05:30:12.246Z,8.80
2018-11-06T05:32:41.067Z,8.90
2018-11-06T05:35:09.269Z,8.90
2018-11-06T05:37:36.931Z,8.90
2018-11-06T05:40:15.797Z,8.90
2018-11-06T05:42:43.483Z,8.90
2018-11-06T05:45:12.071Z,8.90
2018-11-06T05:47:39.522Z,9.00
2018-11-06T05:50:07.146Z,8.90
2018-11-06T05:52:35.273Z,8.90
2018-11-06T05:55:02.827Z,8.90
2018-11-06T05:57:30.249Z,9.00
2018-11-06T05:59:57.692Z,8.90
2018-11-06T06:02:25.134Z,8.90
2018-11-06T06:04:52.567Z,8.90
2018-11-06T06:07:20.094Z,8.90
2018-11-06T06:09:47.626Z,8.90
2018-11-06T06:12:15.133Z,8.70
2018-11-06T06:14:42.605Z,8.60
2018-11-06T06:17:10.188Z,8.70
2018-11-06T06:19:37.604Z,8.70
2018-11-06T06:22:05.215Z,8.70
2018-11-06T06:24:32.685Z,8.70
2018-11-06T06:27:01.849Z,8.70
2018-11-06T06:29:29.271Z,8.60
2018-11-06T06:31:56.861Z,8.70
2018-11-06T06:34:24.379Z,8.70
2018-11-06T06:36:51.843Z,8.80
2018-11-06T06:39:19.389Z,8.80
2018-11-06T06:41:46.857Z,8.80
2018-11-06T06:44:14.396Z,8.80
2018-11-06T06:46:42.068Z,8.70
2018-11-06T06:49:10.291Z,8.80
2018-11-06T06:51:38.028Z,8.90
2018-11-06T06:54:05.664Z,8.90
2018-11-06T06:56:33.030Z,8.90
2018-11-06T06:59:00.568Z,8.90
2018-11-06T07:01:28.131Z,9.00
2018-11-06T07:03:55.711Z,9.00
2018-11-06T07:06:23.451Z,8.90
2018-11-06T07:08:51.101Z,9.00
2018-11-06T07:11:18.616Z,9.00
2018-11-06T07:13:46.458Z,9.00
2018-11-06T07:16:14.247Z,8.90
2018-11-06T07:18:41.929Z,8.90
2018-11-06T07:21:09.955Z,8.80
2018-11-06T07:23:37.425Z,8.90
2018-11-06T07:26:05.280Z,8.90
2018-11-06T07:28:33.193Z,8.90
2018-11-06T07:31:01.995Z,8.90
2018-11-06T07:33:29.603Z,9.00
2018-11-06T07:35:57.325Z,8.90
2018-11-06T07:38:25.654Z,9.00
2018-11-06T07:40:53.323Z,9.00
2018-11-06T07:43:22.234Z,9.00
2018-11-06T07:45:51.086Z,9.00
2018-11-06T07:48:19.196Z,9.00
2018-11-06T07:50:47.003Z,9.10
2018-11-06T07:53:16.188Z,9.10
2018-11-06T07:55:53.131Z,9.10
2018-11-06T07:58:22.260Z,9.10
2018-11-06T08:00:50.863Z,9.10
2018-11-06T08:03:18.491Z,9.10
2018-11-06T08:05:47.048Z,9.10
2018-11-06T08:08:15.072Z,9.10
2018-11-06T08:10:44.914Z,9.00
2018-11-06T08:13:15.422Z,9.20
2018-11-06T08:15:43.434Z,9.30
2018-11-06T08:18:11.103Z,9.30
2018-11-06T08:20:39.773Z,9.20
2018-11-06T08:23:08.593Z,9.30
2018-11-06T08:25:43.400Z,9.40
2018-11-06T08:28:15.163Z,9.40
2018-11-06T08:30:44.111Z,9.50
2018-11-06T08:33:12.424Z,9.50
2018-11-06T08:35:40.252Z,9.50
2018-11-06T08:38:09.963Z,9.50
2018-11-06T08:40:37.738Z,9.50
2018-11-06T08:43:13.834Z,9.60
2018-11-06T08:45:41.950Z,9.60
2018-11-06T08:48:17.871Z,9.60
2018-11-06T08:50:46.533Z,9.60
2018-11-06T08:53:14.754Z,9.60
2018-11-06T08:55:42.754Z,9.70
2018-11-06T08:58:12.036Z,9.70
2018-11-06T09:00:39.847Z,9.80
2018-11-06T09:03:07.475Z,9.70
2018-11-06T09:05:35.091Z,9.80
2018-11-06T09:08:03.138Z,9.80
2018-11-06T09:10:30.968Z,9.90
2018-11-06T09:13:00.273Z,10.00
2018-11-06T09:15:27.852Z,9.90
2018-11-06T09:17:55.649Z,10.00
2018-11-06T09:20:29.027Z,10.00
2018-11-06T09:22:59.433Z,10.10
2018-11-06T09:25:28.628Z,10.20
2018-11-06T09:27:57.241Z,10.20
2018-11-06T09:30:25.862Z,10.30
2018-11-06T09:32:53.467Z,10.30
2018-11-06T09:35:21.703Z,10.30
2018-11-06T09:37:49.958Z,10.40
2018-11-06T09:40:19.510Z,10.40
2018-11-06T09:42:49.732Z,10.50
2018-11-06T09:45:17.451Z,10.60
2018-11-06T09:47:45.790Z,10.50
2018-11-06T09:50:16.794Z,10.70
2018-11-06T09:52:45.779Z,10.70
2018-11-06T09:55:13.770Z,10.70
2018-11-06T09:57:41.435Z,10.70
2018-11-06T10:00:14.078Z,10.80
2018-11-06T10:02:42.243Z,10.90
2018-11-06T10:05:11.475Z,11.00
2018-11-06T10:07:40.719Z,11.00
2018-11-06T10:10:10.928Z,11.10
2018-11-06T10:12:39.404Z,11.10
2018-11-06T10:15:09.317Z,11.20
2018-11-06T10:17:38.314Z,11.20
2018-11-06T10:20:08.168Z,11.30
2018-11-06T10:22:43.841Z,11.30
2018-11-06T10:25:13.214Z,11.40
2018-11-06T10:27:42.167Z,11.40
2018-11-06T10:30:12.987Z,11.50
2018-11-06T10:32:41.136Z,11.60
2018-11-06T10:35:13.734Z,11.70
2018-11-06T10:37:41.466Z,11.80
2018-11-06T10:40:13.182Z,11.80
2018-11-06T10:42:41.650Z,11.80
2018-11-06T10:45:10.645Z,11.90
2018-11-06T10:47:40.083Z,11.90
2018-11-06T10:50:09.042Z,12.10
2018-11-06T10:52:39.195Z,12.10
2018-11-06T10:55:08.424Z,12.00
2018-11-06T10:57:37.979Z,12.20
2018-11-06T11:00:12.351Z,12.10
2018-11-06T11:02:46.007Z,12.40
2018-11-06T11:05:14.333Z,12.40
2018-11-06T11:07:42.424Z,12.40
2018-11-06T11:10:11.011Z,12.30
2018-11-06T11:12:38.920Z,12.30
2018-11-06T11:15:08.004Z,12.40
2018-11-06T11:17:35.906Z,12.40
2018-11-06T11:20:06.187Z,12.50
2018-11-06T11:22:34.903Z,12.50
2018-11-06T11:25:03.410Z,12.60
2018-11-06T11:27:31.714Z,12.50
2018-11-06T11:30:02.282Z,12.60
2018-11-06T11:35:12.888Z,12.80
2018-11-06T11:37:45.738Z,12.80
2018-11-06T11:40:14.963Z,12.90
2018-11-06T11:42:43.838Z,13.00
2018-11-06T11:45:17.583Z,13.10
2018-11-06T11:47:45.407Z,13.20
2018-11-06T11:50:17.005Z,13.30
2018-11-06T11:52:45.272Z,13.20
2018-11-06T11:55:17.555Z,13.20
2018-11-06T11:57:45.853Z,13.30
2018-11-06T12:00:14.968Z,13.40
2018-11-06T12:02:42.493Z,13.40
2018-11-06T12:05:17.428Z,13.20
2018-11-06T12:07:45.064Z,13.30
2018-11-06T12:10:14.187Z,13.30
2018-11-06T12:12:42.177Z,13.40
2018-11-06T12:15:13.101Z,13.40
2018-11-06T12:17:41.372Z,13.50
2018-11-06T12:20:10.056Z,13.50
2018-11-06T12:22:38.233Z,13.40
2018-11-06T12:25:07.065Z,13.50
2018-11-06T12:27:34.599Z,13.40
2018-11-06T12:30:02.330Z,13.70
2018-11-06T12:32:30.717Z,13.70
2018-11-06T12:34:58.246Z,13.70
2018-11-06T12:37:25.885Z,13.80
2018-11-06T12:39:53.489Z,13.80
2018-11-06T12:42:21.266Z,13.60
2018-11-06T12:44:48.967Z,13.80
2018-11-06T12:47:16.642Z,13.90
2018-11-06T12:49:44.397Z,13.90
2018-11-06T12:52:12.077Z,14.00
2018-11-06T12:54:40.346Z,13.90
2018-11-06T12:57:08.520Z,13.90
2018-11-06T12:59:36.180Z,13.90
2018-11-06T13:02:04.128Z,14.10
2018-11-06T13:04:32.231Z,14.10
2018-11-06T13:06:59.981Z,14.10
2018-11-06T13:09:27.648Z,14.10
2018-11-06T13:11:55.436Z,14.00
2018-11-06T13:14:27.379Z,14.10
2018-11-06T13:16:55.058Z,14.30
2018-11-06T13:19:23.336Z,14.10
2018-11-06T13:21:51.398Z,14.10
2018-11-06T13:24:20.064Z,14.20
2018-11-06T13:26:47.792Z,14.20
2018-11-06T13:29:15.511Z,14.30
2018-11-06T13:31:43.185Z,14.30
2018-11-06T13:36:48.684Z,14.40
2018-11-06T13:39:17.056Z,14.40
2018-11-06T13:41:44.670Z,14.40
2018-11-06T13:44:14.730Z,14.40
2018-11-06T13:46:48.391Z,14.50
2018-11-06T13:49:16.769Z,14.50
2018-11-06T13:51:44.875Z,14.50
2018-11-06T13:54:16.998Z,14.40
2018-11-06T13:56:45.730Z,14.40
2018-11-06T13:59:14.703Z,14.40
2018-11-06T14:01:47.268Z,14.40
2018-11-06T14:04:16.096Z,14.50
2018-11-06T14:06:45.867Z,14.50
2018-11-06T14:09:14.614Z,14.50
2018-11-06T14:11:47.148Z,14.50
2018-11-06T14:14:20.927Z,14.50
2018-11-06T14:16:49.221Z,14.00
2018-11-06T14:19:16.979Z,14.50
2018-11-06T14:21:45.266Z,14.50
2018-11-06T14:24:19.579Z,14.40
2018-11-06T14:26:47.616Z,14.50
2018-11-06T14:29:17.817Z,14.40
2018-11-06T14:31:48.772Z,14.40
2018-11-06T14:34:22.229Z,14.30
2018-11-06T14:36:50.545Z,14.30
2018-11-06T14:39:23.299Z,14.30
2018-11-06T14:41:51.987Z,14.30
2018-11-06T14:44:20.270Z,14.10
2018-11-06T14:49:27.826Z,14.20
2018-11-06T14:51:55.458Z,14.00
2018-11-06T14:54:24.390Z,14.10
2018-11-06T14:56:53.958Z,14.10
2018-11-06T14:59:22.947Z,14.10
2018-11-06T15:01:51.398Z,14.10
2018-11-06T15:04:19.307Z,14.00
2018-11-06T15:06:46.942Z,14.00
2018-11-06T15:09:16.520Z,13.90
2018-11-06T15:11:45.708Z,14.10
2018-11-06T15:14:18.903Z,13.80
2018-11-06T15:16:46.614Z,13.90
2018-11-06T15:19:20.607Z,13.90
2018-11-06T15:21:48.391Z,13.70
2018-11-06T15:24:22.044Z,13.80
2018-11-06T15:26:50.120Z,13.80
2018-11-06T15:29:18.915Z,13.80
2018-11-06T15:31:48.358Z,13.70
2018-11-06T15:34:16.644Z,13.70
2018-11-06T15:36:48.842Z,13.60
2018-11-06T15:39:18.274Z,13.60
2018-11-06T15:41:47.089Z,13.40
2018-11-06T15:44:18.780Z,13.50
2018-11-06T15:46:49.016Z,13.40
2018-11-06T15:49:18.381Z,13.40
2018-11-06T15:51:46.030Z,13.40
2018-11-06T15:54:14.056Z,13.30
2018-11-06T15:56:43.584Z,13.20
2018-11-06T15:59:13.691Z,13.20
2018-11-06T16:01:44.125Z,13.10
2018-11-06T16:04:11.931Z,13.10
2018-11-06T16:06:41.440Z,13.10
2018-11-06T16:09:09.725Z,13.00
2018-11-06T16:11:37.354Z,12.90
2018-11-06T16:14:05.718Z,12.90
2018-11-06T16:16:35.682Z,12.90
2018-11-06T16:19:04.970Z,12.80
2018-11-06T16:21:34.579Z,12.80
2018-11-06T16:24:04.745Z,12.70
2018-11-06T16:26:32.294Z,12.70
2018-11-06T16:29:00.714Z,12.60
2018-11-06T16:31:28.912Z,12.70
2018-11-06T16:33:56.530Z,12.50
2018-11-06T16:36:25.037Z,12.50
2018-11-06T16:38:52.797Z,12.40
2018-11-06T16:41:20.987Z,12.30
2018-11-06T16:43:48.523Z,12.20
2018-11-06T16:46:16.838Z,12.40
2018-11-06T16:48:45.495Z,12.40
2018-11-06T16:51:13.218Z,12.30
2018-11-06T16:53:41.506Z,12.30
2018-11-06T16:56:14.164Z,12.20
2018-11-06T16:58:42.304Z,12.20
2018-11-06T17:01:10.305Z,12.10
2018-11-06T17:03:44.063Z,12.10
2018-11-06T17:06:17.483Z,12.00
2018-11-06T17:08:45.693Z,12.10
2018-11-06T17:11:13.250Z,12.10
2018-11-06T17:13:40.954Z,12.00
2018-11-06T17:16:08.684Z,11.90
2018-11-06T17:18:38.474Z,11.90
2018-11-06T17:21:07.585Z,11.90
2018-11-06T17:23:36.206Z,11.80
2018-11-06T17:26:08.034Z,11.70
2018-11-06T17:28:37.919Z,11.70
2018-11-06T17:34:27.642Z,11.70
2018-11-06T17:37:02.000Z,11.60
2018-11-06T17:39:30.152Z,11.60
2018-11-06T17:41:59.897Z,11.60
2018-11-06T17:44:28.762Z,11.60
2018-11-06T17:47:00.365Z,11.60
2018-11-06T17:49:28.833Z,11.50
2018-11-06T17:51:57.018Z,11.50
2018-11-06T17:54:25.923Z,11.40
2018-11-06T17:56:54.135Z,11.40
2018-11-06T17:59:23.359Z,11.40
2018-11-06T18:01:51.864Z,11.40
2018-11-06T18:04:24.135Z,11.40
2018-11-06T18:06:56.784Z,11.40
2018-11-06T18:09:26.349Z,11.30
2018-11-06T18:11:55.241Z,11.30
2018-11-06T18:14:22.936Z,11.30
2018-11-06T18:17:04.102Z,11.30
2018-11-06T18:19:31.932Z,11.20
2018-11-06T18:22:12.803Z,11.20
2018-11-06T18:24:44.778Z,11.20
2018-11-06T18:27:13.894Z,11.20
2018-11-06T18:29:42.137Z,11.20
2018-11-06T18:32:09.733Z,11.10
2018-11-06T18:34:37.155Z,11.40
2018-11-06T18:37:05.424Z,11.10
2018-11-06T18:39:40.645Z,11.10
2018-11-06T18:42:10.172Z,11.10
2018-11-06T18:44:37.751Z,11.10
2018-11-06T18:47:07.057Z,11.10
2018-11-06T18:49:35.079Z,11.10
2018-11-06T18:52:03.699Z,11.00
2018-11-06T18:54:32.313Z,11.00
2018-11-06T18:57:00.940Z,11.00
2018-11-06T18:59:30.700Z,11.00
2018-11-06T19:02:03.075Z,11.00
2018-11-06T19:04:30.896Z,11.00
2018-11-06T19:06:59.264Z,11.00
2018-11-06T19:09:32.103Z,10.90
2018-11-06T19:12:00.367Z,10.90
2018-11-06T19:14:27.959Z,11.00
2018-11-06T19:16:55.843Z,10.90
2018-11-06T19:19:26.848Z,10.90
2018-11-06T19:21:56.143Z,11.00
2018-11-06T19:24:23.938Z,10.90
2018-11-06T19:26:51.503Z,10.90
2018-11-06T19:29:19.525Z,10.90
2018-11-06T19:31:52.314Z,10.90
2018-11-06T19:34:20.061Z,10.90
2018-11-06T19:36:52.234Z,10.80
2018-11-06T19:39:20.713Z,10.90
2018-11-06T19:41:48.851Z,10.90
2018-11-06T19:44:20.736Z,11.00
2018-11-06T19:46:49.861Z,10.90
2018-11-06T19:49:18.134Z,10.90
2018-11-06T19:51:45.740Z,10.90
2018-11-06T19:54:14.274Z,10.90
2018-11-06T19:56:42.146Z,11.00
2018-11-06T19:59:11.244Z,11.00
2018-11-06T20:01:41.097Z,11.00
2018-11-06T20:04:09.697Z,11.00
2018-11-06T20:06:37.772Z,11.00
2018-11-06T20:09:07.551Z,11.00
2018-11-06T20:11:36.536Z,11.00
2018-11-06T20:14:04.512Z,11.00
2018-11-06T20:16:32.983Z,11.00
2018-11-06T20:19:00.803Z,11.00
2018-11-06T20:21:28.775Z,11.10
2018-11-06T20:23:56.853Z,11.10
2018-11-06T20:26:35.418Z,11.10
2018-11-06T20:29:03.411Z,11.10
2018-11-06T20:31:31.650Z,11.10
2018-11-06T20:34:01.223Z,11.10
2018-11-06T20:36:32.167Z,11.00
2018-11-06T20:39:00.211Z,11.00
2018-11-06T20:41:27.862Z,11.00
2018-11-06T20:43:55.680Z,11.00
2018-11-06T20:46:29.716Z,11.00
2018-11-06T20:48:58.661Z,11.00
2018-11-06T20:51:26.867Z,11.00
2018-11-06T20:53:57.143Z,11.00
2018-11-06T20:56:24.718Z,11.00
2018-11-06T20:58:52.422Z,11.00
2018-11-06T21:01:20.162Z,11.00
2018-11-06T21:03:48.159Z,11.00
2018-11-06T21:06:26.667Z,11.00
2018-11-06T21:08:59.946Z,11.00
2018-11-06T21:11:27.467Z,11.00
2018-11-06T21:13:55.235Z,11.00
2018-11-06T21:16:24.103Z,11.00
2018-11-06T21:18:52.247Z,11.00
2018-11-06T21:21:19.787Z,11.00
2018-11-06T21:23:47.458Z,11.00
2018-11-06T21:26:15.231Z,10.90
2018-11-06T21:28:42.523Z,11.00
2018-11-06T21:31:10.043Z,11.00
2018-11-06T21:33:37.581Z,10.90
2018-11-06T21:36:05.105Z,10.90
2018-11-06T21:38:32.718Z,11.00
2018-11-06T21:41:00.943Z,10.90
2018-11-06T21:43:28.432Z,11.00
2018-11-06T21:45:56.015Z,11.00
2018-11-06T21:48:23.511Z,10.90
2018-11-06T21:50:52.261Z,11.00
2018-11-06T21:53:19.772Z,10.90
2018-11-06T21:55:48.475Z,11.00
2018-11-06T21:58:15.967Z,11.00
2018-11-06T22:00:43.499Z,10.90
2018-11-06T22:03:10.970Z,10.90
2018-11-06T22:05:39.158Z,10.90
2018-11-06T22:08:06.731Z,10.80
2018-11-06T22:10:35.154Z,10.80
2018-11-06T22:13:02.739Z,10.70
2018-11-06T22:15:30.127Z,10.60
2018-11-06T22:17:57.582Z,10.80
2018-11-06T22:20:25.081Z,10.70
2018-11-06T22:22:52.618Z,10.80
2018-11-06T22:25:20.162Z,10.70
2018-11-06T22:27:47.636Z,10.70
2018-11-06T22:30:15.893Z,10.70
2018-11-06T22:32:43.904Z,10.60
2018-11-06T22:35:12.441Z,10.70
2018-11-06T22:37:40.127Z,10.70
2018-11-06T22:40:08.147Z,10.70
2018-11-06T22:42:35.635Z,10.60
2018-11-06T22:45:03.207Z,10.60
2018-11-06T22:47:30.669Z,10.60
2018-11-06T22:49:58.097Z,10.60
2018-11-06T22:52:25.656Z,10.50
2018-11-06T22:54:54.468Z,10.60
2018-11-06T22:57:22.410Z,10.50
2018-11-06T22:59:49.868Z,10.50
2018-11-06T23:02:17.318Z,10.50
2018-11-06T23:04:45.527Z,10.40
2018-11-06T23:07:18.859Z,10.40
2018-11-06T23:09:46.386Z,10.30
2018-11-06T23:12:13.814Z,10.60
2018-11-06T23:14:41.349Z,10.20
2018-11-06T23:17:08.887Z,10.10
2018-11-06T23:19:36.418Z,10.30
2018-11-06T23:22:04.463Z,10.10
2018-11-06T23:24:31.904Z,9.70
2018-11-06T23:26:59.434Z,10.20
2018-11-06T23:29:26.886Z,10.20
2018-11-06T23:31:54.370Z,10.20
2018-11-06T23:34:21.938Z,10.20
2018-11-06T23:36:49.418Z,10.50
2018-11-06T23:39:16.859Z,10.20
2018-11-06T23:41:44.380Z,10.20
2018-11-06T23:44:11.815Z,10.20
2018-11-06T23:46:39.234Z,10.10
2018-11-06T23:49:06.702Z,10.00
2018-11-06T23:51:34.178Z,10.10
2018-11-06T23:54:01.643Z,10.10
2018-11-06T23:56:29.263Z,10.10
2018-11-06T23:58:56.743Z,10.10
